Schedule Details


Flight Number: CTN367
Departure: Alexander The Great (LWSK) at 05:45
Arrival: Franjo Tudman (LDZA) at 07:05
Route: GOSTI P92 MAVAR UY400 RETRA UL604 BOSNA UL608 KOMAR L187 TEBLI

Weather Information
LWSK 170100Z VRB01KT 9999 BKN026 M02/M05 Q1021 NOSIG
LDZA 170100Z 08004KT 020V160 CAVOK M02/M04 Q1019 NOSIG
Schedule Frequency

Route Map